< < Back
Terminal Aerodrome Forecast


Current Version              Previous Versions:   1  2  3  4  5  6  7  8  9  

Terminal Aerodrome Forecast

551
FTUS42 KMLB 210800 AAA
TAFMCO
TAF AMD
KMCO 210859Z 2109/2206 35010KT P6SM FEW012 OVC025
      TEMPO 2109/2112 BKN012 OVC020
     FM211500 36011KT P6SM SCT025 BKN035
     FM212300 02009KT P6SM FEW025 SCT250=

Latest METAR

118
SAUS70 KWBC 211500 RRC
MTRMCO
METAR KMCO 211453Z 35014KT 10SM BKN025 20/14 A3008 RMK AO2 SLP184
T02000139 53006


USA.gov is the U.S. government's official web portal to all federal, state and local government web resources and services.